createdAt,value
2023-03-26T00:02:45.368Z,55.18
2023-03-26T00:07:48.954Z,55.20
2023-03-26T00:12:51.698Z,55.35
2023-03-26T00:17:54.487Z,55.33
2023-03-26T00:22:56.833Z,55.27
2023-03-26T00:27:59.099Z,55.31
2023-03-26T00:33:02.082Z,55.20
2023-03-26T00:38:04.310Z,55.40
2023-03-26T00:43:19.469Z,55.25
2023-03-26T00:48:31.377Z,55.38
2023-03-26T00:53:41.466Z,55.18
2023-03-26T00:58:43.994Z,55.16
2023-03-26T01:04:04.656Z,55.12
2023-03-26T01:09:19.239Z,55.10
2023-03-26T01:14:25.293Z,55.05
2023-03-26T01:19:30.309Z,55.12
2023-03-26T01:24:32.661Z,55.09
2023-03-26T01:29:57.841Z,55.21
2023-03-26T01:35:13.250Z,55.23
2023-03-26T01:40:20.534Z,55.34
2023-03-26T01:45:28.399Z,55.18
2023-03-26T01:50:30.482Z,55.13
2023-03-26T01:55:49.915Z,55.08
2023-03-26T02:01:02.365Z,55.01
2023-03-26T02:06:16.674Z,55.07
2023-03-26T02:11:19.981Z,55.05
2023-03-26T02:16:22.336Z,55.46
2023-03-26T02:21:26.405Z,55.27
2023-03-26T02:26:30.431Z,55.55
2023-03-26T02:31:43.570Z,55.51
2023-03-26T02:36:45.904Z,55.45
2023-03-26T02:41:48.243Z,55.63
2023-03-26T02:46:50.704Z,55.70
2023-03-26T02:52:18.878Z,56.23
2023-03-26T02:57:24.863Z,56.29
2023-03-26T03:02:50.715Z,56.41
2023-03-26T03:08:08.307Z,56.50
2023-03-26T03:13:13.168Z,56.87
2023-03-26T03:18:15.534Z,56.66
2023-03-26T03:23:17.917Z,56.47
2023-03-26T03:28:20.395Z,56.67
2023-03-26T03:33:22.770Z,56.48
2023-03-26T03:38:25.245Z,56.53
2023-03-26T03:43:29.296Z,56.73
2023-03-26T03:48:39.990Z,56.65
2023-03-26T03:53:46.461Z,56.76
2023-03-26T03:58:51.769Z,56.64
2023-03-26T04:04:02.457Z,56.27
2023-03-26T04:09:24.897Z,56.11
2023-03-26T04:14:29.754Z,56.17
2023-03-26T04:19:37.761Z,56.06
2023-03-26T04:24:42.744Z,56.06
2023-03-26T04:29:49.992Z,56.00
2023-03-26T04:35:03.621Z,55.75
2023-03-26T04:40:34.920Z,55.84
2023-03-26T04:45:55.843Z,56.11
2023-03-26T04:51:01.881Z,56.13
2023-03-26T04:56:14.377Z,55.95
2023-03-26T05:01:37.993Z,56.06
2023-03-26T05:06:42.046Z,56.10
2023-03-26T05:11:54.529Z,56.16
2023-03-26T05:16:57.336Z,56.15
2023-03-26T05:21:59.761Z,56.30
2023-03-26T05:27:02.216Z,56.19
2023-03-26T05:32:17.289Z,56.05
2023-03-26T05:37:24.765Z,55.69
2023-03-26T05:42:42.062Z,55.64
2023-03-26T05:48:01.821Z,55.53
2023-03-26T05:53:04.560Z,55.41
2023-03-26T05:58:26.766Z,55.60
2023-03-26T06:03:47.459Z,55.63
2023-03-26T06:09:01.475Z,55.54
2023-03-26T06:14:06.245Z,55.58
2023-03-26T06:19:09.870Z,55.40
2023-03-26T06:24:24.767Z,55.50
2023-03-26T06:30:02.131Z,55.50
2023-03-26T06:35:19.357Z,55.60
2023-03-26T06:40:21.848Z,55.51
2023-03-26T06:45:38.528Z,55.70
2023-03-26T06:51:10.475Z,55.84
2023-03-26T06:56:50.900Z,55.85
2023-03-26T07:02:15.964Z,56.13
2023-03-26T07:07:46.380Z,55.85
2023-03-26T07:13:07.812Z,56.05
2023-03-26T07:18:19.082Z,56.27
2023-03-26T07:23:22.629Z,56.00
2023-03-26T07:29:03.771Z,56.34
2023-03-26T07:34:41.377Z,56.46
2023-03-26T07:40:45.589Z,56.54
2023-03-26T07:46:11.394Z,56.81
2023-03-26T07:51:36.559Z,56.96
2023-03-26T07:57:05.424Z,57.18
2023-03-26T08:02:41.519Z,57.50
2023-03-26T08:08:32.511Z,57.66
2023-03-26T08:14:18.669Z,58.10
2023-03-26T08:19:35.591Z,57.95
2023-03-26T08:24:59.610Z,58.10
2023-03-26T08:30:19.036Z,58.29
2023-03-26T08:35:21.230Z,58.38
2023-03-26T08:40:53.010Z,58.35
2023-03-26T08:46:32.042Z,58.66
2023-03-26T08:51:44.892Z,59.02
2023-03-26T08:56:57.786Z,59.38
2023-03-26T09:02:24.789Z,59.70
2023-03-26T09:07:36.706Z,59.57
2023-03-26T09:12:59.966Z,59.84
2023-03-26T09:18:14.178Z,59.78
2023-03-26T09:23:34.581Z,59.91
2023-03-26T09:28:54.915Z,60.15
2023-03-26T09:34:04.579Z,59.92
2023-03-26T09:39:17.739Z,59.73
2023-03-26T09:44:48.279Z,59.45
2023-03-26T09:50:12.067Z,59.24
2023-03-26T09:55:32.346Z,59.10
2023-03-26T10:01:06.088Z,58.90
2023-03-26T10:06:40.997Z,59.09
2023-03-26T10:12:09.252Z,59.02
2023-03-26T10:17:15.781Z,58.91
2023-03-26T10:22:55.430Z,58.81
2023-03-26T10:28:14.193Z,58.81
2023-03-26T10:33:57.444Z,59.13
2023-03-26T10:39:09.478Z,58.86
2023-03-26T10:44:28.445Z,58.81
2023-03-26T10:49:52.377Z,58.58
2023-03-26T10:55:16.696Z,58.40
2023-03-26T11:00:25.681Z,58.42
2023-03-26T11:06:02.428Z,58.19
2023-03-26T11:11:23.338Z,58.13
2023-03-26T11:16:31.605Z,58.05
2023-03-26T11:22:03.821Z,58.00
2023-03-26T11:27:43.453Z,57.97
2023-03-26T11:32:49.373Z,58.24
2023-03-26T11:37:57.460Z,57.91
2023-03-26T11:43:06.709Z,57.78
2023-03-26T11:48:15.013Z,57.82
2023-03-26T11:53:21.530Z,57.87
2023-03-26T11:58:34.072Z,58.09
2023-03-26T12:03:38.373Z,58.26
2023-03-26T12:08:41.802Z,58.57
2023-03-26T12:13:58.496Z,58.48
2023-03-26T12:19:06.268Z,58.68
2023-03-26T12:24:26.696Z,58.71
2023-03-26T12:29:35.057Z,59.06
2023-03-26T12:34:39.599Z,58.95
2023-03-26T12:40:10.706Z,58.81
2023-03-26T12:45:07.019Z,58.82
2023-03-26T12:50:14.788Z,59.00
2023-03-26T12:55:52.442Z,59.13
2023-03-26T13:01:03.407Z,59.24
2023-03-26T13:06:15.865Z,59.49
2023-03-26T13:11:17.967Z,59.31
2023-03-26T13:16:41.754Z,59.77
2023-03-26T13:22:11.362Z,59.68
2023-03-26T13:27:27.294Z,59.83
2023-03-26T13:32:48.870Z,59.88
2023-03-26T13:38:10.190Z,60.05
2023-03-26T13:43:36.438Z,60.96
2023-03-26T13:48:42.344Z,60.63
2023-03-26T13:53:57.596Z,60.76
2023-03-26T13:59:09.243Z,61.33
2023-03-26T14:04:25.818Z,60.68
2023-03-26T14:09:44.950Z,60.97
2023-03-26T14:15:04.349Z,60.50
2023-03-26T14:20:21.119Z,60.56
2023-03-26T14:25:26.477Z,60.83
2023-03-26T14:30:46.573Z,62.29
2023-03-26T14:36:16.993Z,61.25
2023-03-26T14:41:27.988Z,61.14
2023-03-26T14:46:51.312Z,60.94
2023-03-26T14:52:10.476Z,61.70
2023-03-26T14:57:52.483Z,61.42
2023-03-26T15:03:10.008Z,61.33
2023-03-26T15:08:34.168Z,61.39
2023-03-26T15:13:59.837Z,61.71
2023-03-26T15:19:32.616Z,62.28
2023-03-26T15:24:53.189Z,61.93
2023-03-26T15:30:29.785Z,61.27
2023-03-26T15:35:31.966Z,61.03
2023-03-26T15:40:54.498Z,61.57
2023-03-26T15:46:23.106Z,61.24
2023-03-26T15:51:32.452Z,61.01
2023-03-26T15:56:54.934Z,60.68
2023-03-26T16:02:22.871Z,60.47
2023-03-26T16:07:34.616Z,60.10
2023-03-26T16:12:46.934Z,59.85
2023-03-26T16:18:42.526Z,59.67
2023-03-26T16:23:47.611Z,59.47
2023-03-26T16:28:53.121Z,59.42
2023-03-26T16:34:10.939Z,59.05
2023-03-26T16:39:21.766Z,58.94
2023-03-26T16:44:42.732Z,58.78
2023-03-26T16:50:19.013Z,58.76
2023-03-26T16:55:43.540Z,58.93
2023-03-26T17:00:55.825Z,58.82
2023-03-26T17:06:14.390Z,58.74
2023-03-26T17:11:22.373Z,58.76
2023-03-26T17:16:32.652Z,58.24
2023-03-26T17:22:02.534Z,58.17
2023-03-26T17:27:17.666Z,58.24
2023-03-26T17:32:21.721Z,58.15
2023-03-26T17:37:23.859Z,58.24
2023-03-26T17:42:34.063Z,58.00
2023-03-26T17:47:58.938Z,58.06
2023-03-26T17:53:05.267Z,57.69
2023-03-26T17:58:23.782Z,57.59
2023-03-26T18:03:58.011Z,57.67
2023-03-26T18:09:15.949Z,57.82
2023-03-26T18:14:24.272Z,57.80
2023-03-26T18:19:27.810Z,57.51
2023-03-26T18:24:42.341Z,57.39
2023-03-26T18:30:18.255Z,57.11
2023-03-26T18:35:22.569Z,56.90
2023-03-26T18:40:33.027Z,57.08
2023-03-26T18:45:39.179Z,57.06
2023-03-26T18:50:42.229Z,56.96
2023-03-26T18:55:44.998Z,56.73
2023-03-26T19:00:48.310Z,56.77
2023-03-26T19:05:53.492Z,56.72
2023-03-26T19:10:55.916Z,56.58
2023-03-26T19:15:59.120Z,56.66
2023-03-26T19:21:03.636Z,56.77
2023-03-26T19:26:09.866Z,56.71
2023-03-26T19:31:31.837Z,56.35
2023-03-26T19:36:34.809Z,56.49
2023-03-26T19:41:41.899Z,56.35
2023-03-26T19:46:53.336Z,56.63
2023-03-26T19:52:21.408Z,56.36
2023-03-26T19:57:23.858Z,56.43
2023-03-26T20:02:27.158Z,56.27
2023-03-26T20:07:35.047Z,56.35
2023-03-26T20:12:38.468Z,56.11
2023-03-26T20:17:43.015Z,56.27
2023-03-26T20:22:47.250Z,56.28
2023-03-26T20:27:49.415Z,56.28
2023-03-26T20:33:12.520Z,56.36
2023-03-26T20:38:14.111Z,56.08
2023-03-26T20:43:18.659Z,56.31
2023-03-26T20:48:21.076Z,56.04
2023-03-26T20:53:23.972Z,55.95
2023-03-26T20:58:31.758Z,55.95
2023-03-26T21:03:34.455Z,56.05
2023-03-26T21:08:38.062Z,55.75
2023-03-26T21:13:47.683Z,56.00
2023-03-26T21:18:50.081Z,55.93
2023-03-26T21:24:09.554Z,55.73
2023-03-26T21:29:12.268Z,55.75
2023-03-26T21:34:14.733Z,55.83
2023-03-26T21:39:17.073Z,56.09
2023-03-26T21:44:20.316Z,55.87
2023-03-26T21:49:22.934Z,55.76
2023-03-26T21:54:30.366Z,55.91
2023-03-26T21:59:42.710Z,55.86
2023-03-26T22:04:47.493Z,56.02
2023-03-26T22:09:50.403Z,55.98
2023-03-26T22:14:52.805Z,55.91
2023-03-26T22:19:56.332Z,55.67
2023-03-26T22:24:58.492Z,55.72
2023-03-26T22:30:00.612Z,55.63
2023-03-26T22:35:04.225Z,55.61
2023-03-26T22:40:13.077Z,55.71
2023-03-26T22:45:15.232Z,55.57
2023-03-26T22:50:17.414Z,55.55
2023-03-26T22:55:28.346Z,55.98
2023-03-26T23:00:32.578Z,55.81
2023-03-26T23:05:35.023Z,55.61
2023-03-26T23:10:37.180Z,55.43
2023-03-26T23:15:40.623Z,55.44
2023-03-26T23:20:53.079Z,55.51
2023-03-26T23:26:00.501Z,55.46
2023-03-26T23:31:07.285Z,55.52
2023-03-26T23:36:10.212Z,55.50
2023-03-26T23:41:16.231Z,55.48
2023-03-26T23:46:18.315Z,55.66
2023-03-26T23:51:21.235Z,55.54
2023-03-26T23:56:23.936Z,55.38
